Buoy 32543

sailwx.info

Track history (hours):
 
Tides and Currents Weather Stations Pressure Air Temp Water Temp Dewpoint Dewpoint Depression Visibility Wind Speed Wind Dir Waves Ship Positions

Zhongguoyuzheng32543

Last reported at 2017-Oct-18 23:00 UTC. Time now 2017-Oct-18 23:44 UTC.
Position N 31°49' E 133°41'.

Length 50 m; draft 3.2 m.

Type: Other ship. MMSI: 412352016.

Water temperature 27.2 ° C

Date/timePositionNaut miles runAvg speedWind from/ knotsBaromVisibWave heightAir tempDewpointWater temp
2017-Oct-18 23:00N 31°49' E 133°41'1 0.5 27.2
2017-Oct-18 22:00N 31°49' E 133°41'1 1.2 27.1
2017-Oct-18 21:00N 31°49' E 133°40'1 1.3 27.3
2017-Oct-18 20:00N 31°47' E 133°40'1313.4 27.3
2017-Oct-18 19:00N 31°35' E 133°34'0 0.0 27.4
2017-Oct-18 18:00N 31°35' E 133°34'1 0.1 27.4
2017-Oct-18 12:00N 31°34' E 133°35'2 1.9 27.1
2017-Oct-18 11:00N 31°32' E 133°35'3 1.4 26.9
2017-Oct-18 09:00N 31°31' E 133°38'0 0.0 26.9
2017-Oct-18 08:00N 31°31' E 133°38'1 0.5 26.9
2017-Oct-18 06:00N 31°31' E 133°37'3 2.6 26.6
2017-Oct-18 05:00N 31°30' E 133°40'1 1.2 26.7
2017-Oct-18 04:00N 31°29' E 133°40'2 0.4 26.8
2017-Oct-18 00:00N 31°28' E 133°41'1 1.3 27.2
2017-Oct-17 23:00N 31°26' E 133°40'0 0.0 27.2
2017-Oct-17 22:00N 31°26' E 133°40'1 1.2 27.2
2017-Oct-17 21:00N 31°25' E 133°40'1 0.8 27.2
2017-Oct-17 20:00N 31°25' E 133°41'1 0.8 27.3
2017-Oct-17 19:00N 31°24' E 133°40'0 0.0 27.3
2017-Oct-17 18:00N 31°24' E 133°40'6 6.0 27.4
2017-Oct-17 17:00N 31°19' E 133°44'2 0.4 27.4
2017-Oct-17 13:00N 31°20' E 133°46'0 0.0 27.6
2017-Oct-17 12:00N 31°20' E 133°46'1 0.8 27.6
2017-Oct-17 11:00N 31°20' E 133°47'1 1.2 27.4
2017-Oct-17 10:00N 31°20' E 133°48'2 2.4 27.4
2017-Oct-17 09:00N 31°21' E 133°50'1 0.5 27.3
2017-Oct-17 08:00N 31°21' E 133°50'0 0.0 27.2
2017-Oct-17 07:00N 31°21' E 133°50'0 0.0 26.9
2017-Oct-17 06:00N 31°21' E 133°50'1 0.8 26.6
2017-Oct-17 05:00N 31°22' E 133°49'0 0.0 26.4
2017-Oct-17 04:00N 31°22' E 133°49'1 0.4 26.4
2017-Oct-17 01:00N 31°20' E 133°50'1 1.3 26.2
2017-Oct-17 00:00N 31°19' E 133°50'2 0.9 26.2
2017-Oct-16 22:00N 31°17' E 133°50'4 3.7 26.3
2017-Oct-16 21:00N 31°14' E 133°52'0 0.0 26.3
2017-Oct-16 20:00N 31°14' E 133°52'0 0.0 26.3
2017-Oct-16 19:00N 31°14' E 133°52'3 2.9 26.4
2017-Oct-16 18:00N 31°11' E 133°53'0 0.0 26.4
2017-Oct-16 17:00N 31°11' E 133°53'7 1.8 26.4
2017-Oct-16 13:00N 31°09' E 134°01'1 1.0 26.5
2017-Oct-16 12:00N 31°09' E 134°02'2 1.7 26.6
2017-Oct-16 11:00N 31°10' E 134°04'0 0.0 26.6
2017-Oct-16 10:00N 31°10' E 134°04'1 1.2 26.6
2017-Oct-16 09:00N 31°10' E 134°05'1 0.5 26.6
2017-Oct-16 08:00N 31°10' E 134°06'1 0.8 26.6
2017-Oct-16 07:00N 31°11' E 134°05'0 0.0 26.6
2017-Oct-16 06:00N 31°11' E 134°05'1 0.8 26.6
2017-Oct-16 05:00N 31°11' E 134°06'0 0.0 26.6
2017-Oct-16 04:00N 31°11' E 134°06'5 1.7 26.6
2017-Oct-16 01:00N 31°08' E 134°01'0 0.0 26.6
2017-Oct-16 00:00N 31°08' E 134°01'1 1.3 26.6
2017-Oct-15 23:00N 31°07' E 134°01'2 2.1 26.6
2017-Oct-15 22:00N 31°05' E 133°59'1 1.2 26.6
2017-Oct-15 21:00N 31°04' E 133°59'1 0.6 26.6
2017-Oct-15 20:00N 31°04' E 133°59'0 0.0 26.6
2017-Oct-15 19:00N 31°04' E 133°59'2 2.1 26.6
2017-Oct-15 18:00N 31°02' E 134°01'0 0.0 26.6
2017-Oct-15 17:00N 31°02' E 134°01'6 1.6 26.6
2017-Oct-15 13:00N 30°58' E 134°07'1 0.5 26.6
2017-Oct-15 12:00N 30°58' E 134°07'0 0.0 26.6
2017-Oct-15 11:00N 30°58' E 134°07'1 1.2 26.6
2017-Oct-15 10:00N 30°59' E 134°08'1 0.8 26.6
2017-Oct-15 09:00N 30°59' E 134°09'0 0.0 26.6
2017-Oct-15 08:00N 30°59' E 134°09'0 0.0 -0.0
2017-Oct-15 07:00N 30°59' E 134°09'1 0.6 26.6
2017-Oct-15 05:00N 31°01' E 134°09'0 0.0 26.4
2017-Oct-15 04:00N 31°01' E 134°09'1 0.3 26.4
2017-Oct-15 01:00N 31°01' E 134°08'1 0.8 26.3
2017-Oct-15 00:00N 31°00' E 134°07'2 1.9 26.3
2017-Oct-14 23:00N 30°58' E 134°07'2 1.9 26.4
2017-Oct-14 22:00N 30°56' E 134°07'2 1.6 26.4
2017-Oct-14 21:00N 30°55' E 134°08'2 1.9 26.4
2017-Oct-14 20:00N 30°53' E 134°08'3 2.9 26.4
2017-Oct-14 19:00N 30°51' E 134°10'0 0.0 26.4
2017-Oct-14 18:00N 30°51' E 134°10'9 9.5 26.4
2017-Oct-14 17:00N 30°47' E 134°20'0 0.0 26.4
2017-Oct-14 13:00N 30°47' E 134°20'1 1.2 26.6
2017-Oct-14 12:00N 30°48' E 134°21'1 1.0 26.6
2017-Oct-14 11:00N 30°48' E 134°22'1 0.8 26.7
2017-Oct-14 10:00N 30°49' E 134°22'1 1.2 26.6
2017-Oct-14 09:00N 30°49' E 134°23'1 0.5 26.8
2017-Oct-14 08:00N 30°49' E 134°22'1 0.6 26.8
2017-Oct-14 07:00N 30°49' E 134°22'0 0.0 26.8
2017-Oct-14 06:00N 30°49' E 134°22'0 0.0 27.0
2017-Oct-14 05:00N 30°49' E 134°22'0 0.0 27.4
2017-Oct-14 04:00N 30°49' E 134°22'5 2.5 27.4
2017-Oct-14 02:00N 30°44' E 134°21'1 0.6 27.0
2017-Oct-14 00:00N 30°43' E 134°21'1 1.2 26.8
2017-Oct-13 23:00N 30°42' E 134°20'2 1.9 26.8
2017-Oct-13 22:00N 30°40' E 134°19'1 1.3 26.8
2017-Oct-13 21:00N 30°39' E 134°19'2 1.9 26.9
2017-Oct-13 20:00N 30°37' E 134°18'3 3.2 26.9
2017-Oct-13 19:00N 30°34' E 134°19'0 0.0 26.9
2017-Oct-13 18:00N 30°34' E 134°19'0 0.0 26.9
2017-Oct-13 17:00N 30°34' E 134°19'9 1.8 26.9
2017-Oct-13 12:00N 30°29' E 134°28'1 1.2 26.9
2017-Oct-13 11:00N 30°28' E 134°28'1 0.8 26.9
2017-Oct-13 10:00N 30°28' E 134°28'1 0.8 26.9
2017-Oct-13 09:00N 30°28' E 134°29'2 0.9 26.9
2017-Oct-13 07:00N 30°26' E 134°28'0 0.0 26.9
2017-Oct-13 06:00N 30°26' E 134°28'0 0.0 26.9
2017-Oct-13 05:00N 30°26' E 134°28'7 1.4 26.9
2017-Oct-13 00:00N 30°20' E 134°32'1 1.2 26.8
2017-Oct-12 23:00N 30°19' E 134°32'2 1.9 26.8
2017-Oct-12 22:00N 30°17' E 134°31'2 1.6 26.8
2017-Oct-12 21:00N 30°16' E 134°32'1 0.5 26.6
2017-Oct-12 20:00N 30°16' E 134°33'3 2.6 26.7
2017-Oct-12 19:00N 30°13' E 134°34'0 0.0 26.8
2017-Oct-12 18:00N 30°13' E 134°34'1 0.5 26.8
2017-Oct-12 17:00N 30°13' E 134°34'8 2.1 26.9
2017-Oct-12 13:00N 30°07' E 134°40'5 0.9 26.9
2017-Oct-12 08:00N 30°05' E 134°45'2 1.6 27.4
2017-Oct-12 07:00N 30°05' E 134°47'0 0.0 27.8
2017-Oct-12 06:00N 30°05' E 134°47'0 0.0 27.9
2017-Oct-12 05:00N 30°05' E 134°47'3 0.7 27.9
2017-Oct-12 01:00N 30°04' E 134°49'1 1.0 26.9
2017-Oct-12 00:00N 30°04' E 134°50'1 1.3 26.6
2017-Oct-11 23:00N 30°02' E 134°51'1 0.6 26.6
2017-Oct-11 21:00N 30°02' E 134°52'1 0.8 26.4
2017-Oct-11 20:00N 30°01' E 134°53'2 2.0 26.4
2017-Oct-11 19:00N 30°00' E 134°55'0 0.0 26.4
2017-Oct-11 18:00N 30°00' E 134°55'0 0.0 26.4
2017-Oct-11 17:00N 30°00' E 134°55'8 1.6 26.4
2017-Oct-11 12:00N 29°56' E 135°02'1 1.2 26.6
2017-Oct-11 11:00N 29°55' E 135°04'1 1.0 26.6
2017-Oct-11 10:00N 29°55' E 135°05'2 1.7 26.6
2017-Oct-11 09:00N 29°55' E 135°07'1 0.5 26.6
2017-Oct-11 08:00N 29°55' E 135°07'6 5.8 26.7
2017-Oct-11 07:00N 29°55' E 135°14'4 4.1 26.8
2017-Oct-11 06:00N 29°57' E 135°18'0 0.0 26.9
2017-Oct-11 05:00N 29°57' E 135°18'1 0.1 26.9
2017-Oct-11 01:00N 29°57' E 135°19'1 0.8 26.4
2017-Oct-11 00:00N 29°58' E 135°19'1 1.2 26.2
2017-Oct-10 23:00N 29°58' E 135°20'0 0.0 26.2
2017-Oct-10 22:00N 29°58' E 135°20'1 0.6 26.2
2017-Oct-10 21:00N 29°58' E 135°20'2 2.2 26.2
2017-Oct-10 20:00N 29°58' E 135°23'5 4.7 26.2
2017-Oct-10 19:00N 29°58' E 135°28'0 0.0 26.2
2017-Oct-10 18:00N 29°58' E 135°28'1 0.2 26.3
2017-Oct-10 13:00N 29°57' E 135°29'0 0.0 26.3
2017-Oct-10 12:00N 29°57' E 135°29'3 3.2 26.3
2017-Oct-10 11:00N 29°58' E 135°33'0 0.0 26.3
2017-Oct-10 10:00N 29°58' E 135°33'3 3.1 26.3
2017-Oct-10 09:00N 29°58' E 135°37'1 1.3 26.4
2017-Oct-10 08:00N 29°59' E 135°37'3 2.9 26.5
2017-Oct-10 07:00N 30°00' E 135°40'0 0.0 26.6
2017-Oct-10 06:00N 30°00' E 135°40'3 2.7 26.9
2017-Oct-10 05:00N 30°02' E 135°43'6 5.6 26.8
2017-Oct-10 04:00N 30°06' E 135°47'1 0.2 26.7
2017-Oct-10 01:00N 30°06' E 135°46'2 2.0 26.4
2017-Oct-10 00:00N 30°07' E 135°48'2 1.9 26.2
2017-Oct-09 23:00N 30°09' E 135°49'0 0.0 26.0
2017-Oct-09 22:00N 30°09' E 135°49'2 2.1 25.9
2017-Oct-09 21:00N 30°11' E 135°50'1 0.6 25.9
2017-Oct-09 20:00N 30°10' E 135°50'2 1.8 25.9
2017-Oct-09 19:00N 30°12' E 135°50'4 0.6 25.9
2017-Oct-09 12:00N 30°13' E 135°55'2 1.6 26.2
2017-Oct-09 11:00N 30°13' E 135°56'1 0.8 26.3
2017-Oct-09 10:00N 30°14' E 135°57'2 1.6 26.4
2017-Oct-09 09:00N 30°14' E 135°59'1 1.0 26.4
2017-Oct-09 08:00N 30°14' E 136°00'2 1.7 26.6
2017-Oct-09 07:00N 30°14' E 136°02'0 0.0 26.6
2017-Oct-09 06:00N 30°14' E 136°02'3 1.3 26.8
2017-Oct-09 04:00N 30°15' E 136°05'8 2.1 26.7
2017-Oct-09 00:00N 30°22' E 136°11'0 0.0 26.2
2017-Oct-08 23:00N 30°22' E 136°11'   26.2
Track history (hours):
 
Tides and Currents Weather Stations Pressure Air Temp Water Temp Dewpoint Dewpoint Depression Visibility Wind Speed Wind Dir Waves Ship Positions

Zhongguoyuzheng32543

Last reported at 2017-Oct-18 23:00 UTC. Time now 2017-Oct-18 23:44 UTC.
Position N 31°49' E 133°41'.

Length 50 m; draft 3.2 m.

Type: Other ship. MMSI: 412352016.

Water temperature 27.2 ° C

Date/timePositionNaut miles runAvg speedWind from/ knotsBaromVisibWave heightAir tempDewpointWater temp
2017-Oct-18 23:00N 31°49' E 133°41'1 0.5 27.2
2017-Oct-18 22:00N 31°49' E 133°41'1 1.2 27.1
2017-Oct-18 21:00N 31°49' E 133°40'1 1.3 27.3
2017-Oct-18 20:00N 31°47' E 133°40'1313.4 27.3
2017-Oct-18 19:00N 31°35' E 133°34'0 0.0 27.4
2017-Oct-18 18:00N 31°35' E 133°34'1 0.1 27.4
2017-Oct-18 12:00N 31°34' E 133°35'2 1.9 27.1
2017-Oct-18 11:00N 31°32' E 133°35'3 1.4 26.9
2017-Oct-18 09:00N 31°31' E 133°38'0 0.0 26.9
2017-Oct-18 08:00N 31°31' E 133°38'1 0.5 26.9
2017-Oct-18 06:00N 31°31' E 133°37'3 2.6 26.6
2017-Oct-18 05:00N 31°30' E 133°40'1 1.2 26.7
2017-Oct-18 04:00N 31°29' E 133°40'2 0.4 26.8
2017-Oct-18 00:00N 31°28' E 133°41'1 1.3 27.2
2017-Oct-17 23:00N 31°26' E 133°40'0 0.0 27.2
2017-Oct-17 22:00N 31°26' E 133°40'1 1.2 27.2
2017-Oct-17 21:00N 31°25' E 133°40'1 0.8 27.2
2017-Oct-17 20:00N 31°25' E 133°41'1 0.8 27.3
2017-Oct-17 19:00N 31°24' E 133°40'0 0.0 27.3
2017-Oct-17 18:00N 31°24' E 133°40'6 6.0 27.4
2017-Oct-17 17:00N 31°19' E 133°44'2 0.4 27.4
2017-Oct-17 13:00N 31°20' E 133°46'0 0.0 27.6
2017-Oct-17 12:00N 31°20' E 133°46'1 0.8 27.6
2017-Oct-17 11:00N 31°20' E 133°47'1 1.2 27.4
2017-Oct-17 10:00N 31°20' E 133°48'2 2.4 27.4
2017-Oct-17 09:00N 31°21' E 133°50'1 0.5 27.3
2017-Oct-17 08:00N 31°21' E 133°50'0 0.0 27.2
2017-Oct-17 07:00N 31°21' E 133°50'0 0.0 26.9
2017-Oct-17 06:00N 31°21' E 133°50'1 0.8 26.6
2017-Oct-17 05:00N 31°22' E 133°49'0 0.0 26.4
2017-Oct-17 04:00N 31°22' E 133°49'1 0.4 26.4
2017-Oct-17 01:00N 31°20' E 133°50'1 1.3 26.2
2017-Oct-17 00:00N 31°19' E 133°50'2 0.9 26.2
2017-Oct-16 22:00N 31°17' E 133°50'4 3.7 26.3
2017-Oct-16 21:00N 31°14' E 133°52'0 0.0 26.3
2017-Oct-16 20:00N 31°14' E 133°52'0 0.0 26.3
2017-Oct-16 19:00N 31°14' E 133°52'3 2.9 26.4
2017-Oct-16 18:00N 31°11' E 133°53'0 0.0 26.4
2017-Oct-16 17:00N 31°11' E 133°53'7 1.8 26.4
2017-Oct-16 13:00N 31°09' E 134°01'1 1.0 26.5
2017-Oct-16 12:00N 31°09' E 134°02'2 1.7 26.6
2017-Oct-16 11:00N 31°10' E 134°04'0 0.0 26.6
2017-Oct-16 10:00N 31°10' E 134°04'1 1.2 26.6
2017-Oct-16 09:00N 31°10' E 134°05'1 0.5 26.6
2017-Oct-16 08:00N 31°10' E 134°06'1 0.8 26.6
2017-Oct-16 07:00N 31°11' E 134°05'0 0.0 26.6
2017-Oct-16 06:00N 31°11' E 134°05'1 0.8 26.6
2017-Oct-16 05:00N 31°11' E 134°06'0 0.0 26.6
2017-Oct-16 04:00N 31°11' E 134°06'5 1.7 26.6
2017-Oct-16 01:00N 31°08' E 134°01'0 0.0 26.6
2017-Oct-16 00:00N 31°08' E 134°01'1 1.3 26.6
2017-Oct-15 23:00N 31°07' E 134°01'2 2.1 26.6
2017-Oct-15 22:00N 31°05' E 133°59'1 1.2 26.6
2017-Oct-15 21:00N 31°04' E 133°59'1 0.6 26.6
2017-Oct-15 20:00N 31°04' E 133°59'0 0.0 26.6
2017-Oct-15 19:00N 31°04' E 133°59'2 2.1 26.6
2017-Oct-15 18:00N 31°02' E 134°01'0 0.0 26.6
2017-Oct-15 17:00N 31°02' E 134°01'6 1.6 26.6
2017-Oct-15 13:00N 30°58' E 134°07'1 0.5 26.6
2017-Oct-15 12:00N 30°58' E 134°07'0 0.0 26.6
2017-Oct-15 11:00N 30°58' E 134°07'1 1.2 26.6
2017-Oct-15 10:00N 30°59' E 134°08'1 0.8 26.6
2017-Oct-15 09:00N 30°59' E 134°09'0 0.0 26.6
2017-Oct-15 08:00N 30°59' E 134°09'0 0.0 -0.0
2017-Oct-15 07:00N 30°59' E 134°09'1 0.6 26.6
2017-Oct-15 05:00N 31°01' E 134°09'0 0.0 26.4
2017-Oct-15 04:00N 31°01' E 134°09'1 0.3 26.4
2017-Oct-15 01:00N 31°01' E 134°08'1 0.8 26.3
2017-Oct-15 00:00N 31°00' E 134°07'2 1.9 26.3
2017-Oct-14 23:00N 30°58' E 134°07'2 1.9 26.4
2017-Oct-14 22:00N 30°56' E 134°07'2 1.6 26.4
2017-Oct-14 21:00N 30°55' E 134°08'2 1.9 26.4
2017-Oct-14 20:00N 30°53' E 134°08'3 2.9 26.4
2017-Oct-14 19:00N 30°51' E 134°10'0 0.0 26.4
2017-Oct-14 18:00N 30°51' E 134°10'9 9.5 26.4
2017-Oct-14 17:00N 30°47' E 134°20'0 0.0 26.4
2017-Oct-14 13:00N 30°47' E 134°20'1 1.2 26.6
2017-Oct-14 12:00N 30°48' E 134°21'1 1.0 26.6
2017-Oct-14 11:00N 30°48' E 134°22'1 0.8 26.7
2017-Oct-14 10:00N 30°49' E 134°22'1 1.2 26.6
2017-Oct-14 09:00N 30°49' E 134°23'1 0.5 26.8
2017-Oct-14 08:00N 30°49' E 134°22'1 0.6 26.8
2017-Oct-14 07:00N 30°49' E 134°22'0 0.0 26.8
2017-Oct-14 06:00N 30°49' E 134°22'0 0.0 27.0
2017-Oct-14 05:00N 30°49' E 134°22'0 0.0 27.4
2017-Oct-14 04:00N 30°49' E 134°22'5 2.5 27.4
2017-Oct-14 02:00N 30°44' E 134°21'1 0.6 27.0
2017-Oct-14 00:00N 30°43' E 134°21'1 1.2 26.8
2017-Oct-13 23:00N 30°42' E 134°20'2 1.9 26.8
2017-Oct-13 22:00N 30°40' E 134°19'1 1.3 26.8
2017-Oct-13 21:00N 30°39' E 134°19'2 1.9 26.9
2017-Oct-13 20:00N 30°37' E 134°18'3 3.2 26.9
2017-Oct-13 19:00N 30°34' E 134°19'0 0.0 26.9
2017-Oct-13 18:00N 30°34' E 134°19'0 0.0 26.9
2017-Oct-13 17:00N 30°34' E 134°19'9 1.8 26.9
2017-Oct-13 12:00N 30°29' E 134°28'1 1.2 26.9
2017-Oct-13 11:00N 30°28' E 134°28'1 0.8 26.9
2017-Oct-13 10:00N 30°28' E 134°28'1 0.8 26.9
2017-Oct-13 09:00N 30°28' E 134°29'2 0.9 26.9
2017-Oct-13 07:00N 30°26' E 134°28'0 0.0 26.9
2017-Oct-13 06:00N 30°26' E 134°28'0 0.0 26.9
2017-Oct-13 05:00N 30°26' E 134°28'7 1.4 26.9
2017-Oct-13 00:00N 30°20' E 134°32'1 1.2 26.8
2017-Oct-12 23:00N 30°19' E 134°32'2 1.9 26.8
2017-Oct-12 22:00N 30°17' E 134°31'2 1.6 26.8
2017-Oct-12 21:00N 30°16' E 134°32'1 0.5 26.6
2017-Oct-12 20:00N 30°16' E 134°33'3 2.6 26.7
2017-Oct-12 19:00N 30°13' E 134°34'0 0.0 26.8
2017-Oct-12 18:00N 30°13' E 134°34'1 0.5 26.8
2017-Oct-12 17:00N 30°13' E 134°34'8 2.1 26.9
2017-Oct-12 13:00N 30°07' E 134°40'5 0.9 26.9
2017-Oct-12 08:00N 30°05' E 134°45'2 1.6 27.4
2017-Oct-12 07:00N 30°05' E 134°47'0 0.0 27.8
2017-Oct-12 06:00N 30°05' E 134°47'0 0.0 27.9
2017-Oct-12 05:00N 30°05' E 134°47'3 0.7 27.9
2017-Oct-12 01:00N 30°04' E 134°49'1 1.0 26.9
2017-Oct-12 00:00N 30°04' E 134°50'1 1.3 26.6
2017-Oct-11 23:00N 30°02' E 134°51'1 0.6 26.6
2017-Oct-11 21:00N 30°02' E 134°52'1 0.8 26.4
2017-Oct-11 20:00N 30°01' E 134°53'2 2.0 26.4
2017-Oct-11 19:00N 30°00' E 134°55'0 0.0 26.4
2017-Oct-11 18:00N 30°00' E 134°55'0 0.0 26.4
2017-Oct-11 17:00N 30°00' E 134°55'8 1.6 26.4
2017-Oct-11 12:00N 29°56' E 135°02'1 1.2 26.6
2017-Oct-11 11:00N 29°55' E 135°04'1 1.0 26.6
2017-Oct-11 10:00N 29°55' E 135°05'2 1.7 26.6
2017-Oct-11 09:00N 29°55' E 135°07'1 0.5 26.6
2017-Oct-11 08:00N 29°55' E 135°07'6 5.8 26.7
2017-Oct-11 07:00N 29°55' E 135°14'4 4.1 26.8
2017-Oct-11 06:00N 29°57' E 135°18'0 0.0 26.9
2017-Oct-11 05:00N 29°57' E 135°18'1 0.1 26.9
2017-Oct-11 01:00N 29°57' E 135°19'1 0.8 26.4
2017-Oct-11 00:00N 29°58' E 135°19'1 1.2 26.2
2017-Oct-10 23:00N 29°58' E 135°20'0 0.0 26.2
2017-Oct-10 22:00N 29°58' E 135°20'1 0.6 26.2
2017-Oct-10 21:00N 29°58' E 135°20'2 2.2 26.2
2017-Oct-10 20:00N 29°58' E 135°23'5 4.7 26.2
2017-Oct-10 19:00N 29°58' E 135°28'0 0.0 26.2
2017-Oct-10 18:00N 29°58' E 135°28'1 0.2 26.3
2017-Oct-10 13:00N 29°57' E 135°29'0 0.0 26.3
2017-Oct-10 12:00N 29°57' E 135°29'3 3.2 26.3
2017-Oct-10 11:00N 29°58' E 135°33'0 0.0 26.3
2017-Oct-10 10:00N 29°58' E 135°33'3 3.1 26.3
2017-Oct-10 09:00N 29°58' E 135°37'1 1.3 26.4
2017-Oct-10 08:00N 29°59' E 135°37'3 2.9 26.5
2017-Oct-10 07:00N 30°00' E 135°40'0 0.0 26.6
2017-Oct-10 06:00N 30°00' E 135°40'3 2.7 26.9
2017-Oct-10 05:00N 30°02' E 135°43'6 5.6 26.8
2017-Oct-10 04:00N 30°06' E 135°47'1 0.2 26.7
2017-Oct-10 01:00N 30°06' E 135°46'2 2.0 26.4
2017-Oct-10 00:00N 30°07' E 135°48'2 1.9 26.2
2017-Oct-09 23:00N 30°09' E 135°49'0 0.0 26.0
2017-Oct-09 22:00N 30°09' E 135°49'2 2.1 25.9
2017-Oct-09 21:00N 30°11' E 135°50'1 0.6 25.9
2017-Oct-09 20:00N 30°10' E 135°50'2 1.8 25.9
2017-Oct-09 19:00N 30°12' E 135°50'4 0.6 25.9
2017-Oct-09 12:00N 30°13' E 135°55'2 1.6 26.2
2017-Oct-09 11:00N 30°13' E 135°56'1 0.8 26.3
2017-Oct-09 10:00N 30°14' E 135°57'2 1.6 26.4
2017-Oct-09 09:00N 30°14' E 135°59'1 1.0 26.4
2017-Oct-09 08:00N 30°14' E 136°00'2 1.7 26.6
2017-Oct-09 07:00N 30°14' E 136°02'0 0.0 26.6
2017-Oct-09 06:00N 30°14' E 136°02'3 1.3 26.8
2017-Oct-09 04:00N 30°15' E 136°05'8 2.1 26.7
2017-Oct-09 00:00N 30°22' E 136°11'0 0.0 26.2
2017-Oct-08 23:00N 30°22' E 136°11'   26.2

Dump ship's entire track history